sensor_id;sensor_type;location;lat;lon;timestamp;pressure;altitude;pressure_sealevel;temperature;humidity
12213;BME280;6169;44.158;22.788;2024-03-02T00:01:20;100796.75;;;10.48;62.20
12213;BME280;6169;44.158;22.788;2024-03-02T00:06:23;100792.41;;;10.35;62.38
12213;BME280;6169;44.158;22.788;2024-03-02T00:11:25;100767.63;;;9.97;63.42
12213;BME280;6169;44.158;22.788;2024-03-02T00:16:31;100735.31;;;9.65;63.68
12213;BME280;6169;44.158;22.788;2024-03-02T00:21:34;100790.06;;;10.04;63.54
12213;BME280;6169;44.158;22.788;2024-03-02T00:26:36;100793.38;;;9.82;64.51
12213;BME280;6169;44.158;22.788;2024-03-02T00:31:41;100785.34;;;9.87;64.20
12213;BME280;6169;44.158;22.788;2024-03-02T00:36:43;100787.00;;;9.77;65.45
12213;BME280;6169;44.158;22.788;2024-03-02T00:41:46;100783.22;;;9.89;65.04
12213;BME280;6169;44.158;22.788;2024-03-02T00:46:49;100782.63;;;10.23;63.59
12213;BME280;6169;44.158;22.788;2024-03-02T00:51:52;100774.00;;;9.90;63.88
12213;BME280;6169;44.158;22.788;2024-03-02T00:56:55;100765.03;;;9.78;64.00
12213;BME280;6169;44.158;22.788;2024-03-02T01:01:59;100768.19;;;9.99;64.05
12213;BME280;6169;44.158;22.788;2024-03-02T01:07:01;100768.09;;;10.05;63.91
12213;BME280;6169;44.158;22.788;2024-03-02T01:12:04;100766.56;;;9.86;63.49
12213;BME280;6169;44.158;22.788;2024-03-02T01:17:08;100770.94;;;9.87;63.10
12213;BME280;6169;44.158;22.788;2024-03-02T01:22:10;100764.19;;;10.01;62.43
12213;BME280;6169;44.158;22.788;2024-03-02T01:27:13;100762.63;;;9.94;63.05
12213;BME280;6169;44.158;22.788;2024-03-02T01:32:16;100787.38;;;9.92;63.65
12213;BME280;6169;44.158;22.788;2024-03-02T01:37:18;100760.97;;;10.04;63.22
12213;BME280;6169;44.158;22.788;2024-03-02T01:42:20;100763.22;;;9.96;63.39
12213;BME280;6169;44.158;22.788;2024-03-02T01:47:24;100761.00;;;9.93;63.82
12213;BME280;6169;44.158;22.788;2024-03-02T01:52:26;100767.63;;;10.08;63.43
12213;BME280;6169;44.158;22.788;2024-03-02T01:57:29;100765.94;;;9.96;63.88
12213;BME280;6169;44.158;22.788;2024-03-02T02:02:32;100764.53;;;10.05;64.05
12213;BME280;6169;44.158;22.788;2024-03-02T02:07:35;100772.34;;;9.89;64.47
12213;BME280;6169;44.158;22.788;2024-03-02T02:12:38;100770.59;;;9.72;64.91
12213;BME280;6169;44.158;22.788;2024-03-02T02:17:41;100775.06;;;9.78;64.68
12213;BME280;6169;44.158;22.788;2024-03-02T02:22:55;100772.56;;;9.88;64.25
12213;BME280;6169;44.158;22.788;2024-03-02T02:27:57;100771.75;;;9.87;63.37
12213;BME280;6169;44.158;22.788;2024-03-02T02:32:59;100771.84;;;10.04;63.14
12213;BME280;6169;44.158;22.788;2024-03-02T02:38:03;100716.41;;;9.46;63.83
12213;BME280;6169;44.158;22.788;2024-03-02T02:43:06;100772.34;;;9.89;64.01
12213;BME280;6169;44.158;22.788;2024-03-02T02:48:08;100764.78;;;9.68;63.69
12213;BME280;6169;44.158;22.788;2024-03-02T02:53:12;100764.78;;;9.68;62.68
12213;BME280;6169;44.158;22.788;2024-03-02T02:58:14;100773.69;;;9.33;65.15
12213;BME280;6169;44.158;22.788;2024-03-02T03:03:16;100762.63;;;9.58;63.96
12213;BME280;6169;44.158;22.788;2024-03-02T03:08:19;100761.16;;;9.20;65.58
12213;BME280;6169;44.158;22.788;2024-03-02T03:13:24;100754.94;;;9.32;65.35
12213;BME280;6169;44.158;22.788;2024-03-02T03:18:26;100756.78;;;8.89;67.99
12213;BME280;6169;44.158;22.788;2024-03-02T03:23:29;100756.59;;;9.02;67.21
12213;BME280;6169;44.158;22.788;2024-03-02T03:28:31;100755.94;;;8.77;68.20
12213;BME280;6169;44.158;22.788;2024-03-02T03:33:33;100751.91;;;8.68;69.31
12213;BME280;6169;44.158;22.788;2024-03-02T03:38:37;100747.69;;;8.53;69.08
12213;BME280;6169;44.158;22.788;2024-03-02T03:43:39;100754.22;;;8.94;68.23
12213;BME280;6169;44.158;22.788;2024-03-02T03:48:41;100759.78;;;8.99;67.26
12213;BME280;6169;44.158;22.788;2024-03-02T03:53:45;100758.19;;;9.22;66.55
12213;BME280;6169;44.158;22.788;2024-03-02T03:58:47;100764.22;;;8.82;67.66
12213;BME280;6169;44.158;22.788;2024-03-02T04:03:49;100763.34;;;8.70;67.11
12213;BME280;6169;44.158;22.788;2024-03-02T04:08:52;100761.69;;;8.99;66.61
12213;BME280;6169;44.158;22.788;2024-03-02T04:13:54;100761.22;;;9.02;65.68
12213;BME280;6169;44.158;22.788;2024-03-02T04:18:56;100755.03;;;8.95;66.46
12213;BME280;6169;44.158;22.788;2024-03-02T04:24:00;100761.31;;;9.37;65.93
12213;BME280;6169;44.158;22.788;2024-03-02T04:29:02;100772.81;;;9.09;65.90
12213;BME280;6169;44.158;22.788;2024-03-02T04:34:04;100777.53;;;9.14;65.82
12213;BME280;6169;44.158;22.788;2024-03-02T04:39:07;100780.38;;;8.77;67.79
12213;BME280;6169;44.158;22.788;2024-03-02T04:44:11;100785.34;;;8.80;68.55
12213;BME280;6169;44.158;22.788;2024-03-02T04:49:13;100784.88;;;8.83;67.51
12213;BME280;6169;44.158;22.788;2024-03-02T04:54:17;100787.19;;;8.98;66.44
12213;BME280;6169;44.158;22.788;2024-03-02T04:59:19;100795.97;;;9.12;66.68
12213;BME280;6169;44.158;22.788;2024-03-02T05:04:21;100790.41;;;8.76;66.43
12213;BME280;6169;44.158;22.788;2024-03-02T05:09:24;100798.09;;;8.79;67.28
12213;BME280;6169;44.158;22.788;2024-03-02T05:14:26;100806.44;;;8.78;66.95
12213;BME280;6169;44.158;22.788;2024-03-02T05:19:29;100794.88;;;9.43;64.96
12213;BME280;6169;44.158;22.788;2024-03-02T05:24:33;100800.72;;;9.16;65.84
12213;BME280;6169;44.158;22.788;2024-03-02T05:29:35;100808.63;;;9.18;64.96
12213;BME280;6169;44.158;22.788;2024-03-02T05:34:37;100806.56;;;9.01;65.81
12213;BME280;6169;44.158;22.788;2024-03-02T05:39:40;100810.84;;;8.79;66.46
12213;BME280;6169;44.158;22.788;2024-03-02T05:44:43;100819.38;;;9.13;66.07
12213;BME280;6169;44.158;22.788;2024-03-02T05:49:45;100808.22;;;9.02;65.76
12213;BME280;6169;44.158;22.788;2024-03-02T05:54:49;100819.09;;;9.02;66.08
12213;BME280;6169;44.158;22.788;2024-03-02T05:59:51;100820.13;;;8.71;67.51
12213;BME280;6169;44.158;22.788;2024-03-02T06:04:56;100819.59;;;9.11;66.10
12213;BME280;6169;44.158;22.788;2024-03-02T06:10:00;100818.66;;;9.17;65.21
12213;BME280;6169;44.158;22.788;2024-03-02T06:15:02;100824.50;;;9.33;65.83
12213;BME280;6169;44.158;22.788;2024-03-02T06:20:05;100824.00;;;8.94;66.51
12213;BME280;6169;44.158;22.788;2024-03-02T06:25:10;100820.31;;;8.88;67.32
12213;BME280;6169;44.158;22.788;2024-03-02T06:30:12;100826.88;;;9.29;65.79
12213;BME280;6169;44.158;22.788;2024-03-02T06:35:14;100838.09;;;9.33;65.60
12213;BME280;6169;44.158;22.788;2024-03-02T06:40:18;100833.03;;;9.06;66.66
12213;BME280;6169;44.158;22.788;2024-03-02T06:45:21;100840.94;;;9.38;65.58
12213;BME280;6169;44.158;22.788;2024-03-02T06:50:23;100844.75;;;9.07;66.02
12213;BME280;6169;44.158;22.788;2024-03-02T06:55:27;100843.81;;;9.55;65.40
12213;BME280;6169;44.158;22.788;2024-03-02T07:00:29;100849.19;;;9.73;64.47
12213;BME280;6169;44.158;22.788;2024-03-02T07:05:31;100857.13;;;9.86;64.02
12213;BME280;6169;44.158;22.788;2024-03-02T07:10:34;100860.31;;;9.72;64.32
12213;BME280;6169;44.158;22.788;2024-03-02T07:15:36;100863.69;;;9.67;64.38
12213;BME280;6169;44.158;22.788;2024-03-02T07:21:06;100867.00;;;9.57;64.68
12213;BME280;6169;44.158;22.788;2024-03-02T07:26:09;100867.09;;;9.62;63.88
12213;BME280;6169;44.158;22.788;2024-03-02T07:31:11;100723.56;;;8.45;64.18
12213;BME280;6169;44.158;22.788;2024-03-02T07:36:13;100878.84;;;9.63;64.54
12213;BME280;6169;44.158;22.788;2024-03-02T07:41:17;100886.22;;;9.86;63.79
12213;BME280;6169;44.158;22.788;2024-03-02T07:46:19;100888.47;;;9.77;63.40
12213;BME280;6169;44.158;22.788;2024-03-02T07:51:22;100894.53;;;10.03;63.10
12213;BME280;6169;44.158;22.788;2024-03-02T07:56:25;100900.91;;;9.97;63.03
12213;BME280;6169;44.158;22.788;2024-03-02T08:01:27;100907.88;;;9.93;63.24
12213;BME280;6169;44.158;22.788;2024-03-02T08:06:30;100904.00;;;9.58;64.15
12213;BME280;6169;44.158;22.788;2024-03-02T08:11:34;100904.19;;;9.57;65.09
12213;BME280;6169;44.158;22.788;2024-03-02T08:16:36;100914.00;;;9.46;65.59
12213;BME280;6169;44.158;22.788;2024-03-02T08:21:38;100912.81;;;9.72;64.33
12213;BME280;6169;44.158;22.788;2024-03-02T08:26:42;100913.53;;;9.49;66.57
12213;BME280;6169;44.158;22.788;2024-03-02T08:31:44;100906.50;;;9.30;64.84
12213;BME280;6169;44.158;22.788;2024-03-02T08:36:46;100912.88;;;9.35;65.72
12213;BME280;6169;44.158;22.788;2024-03-02T08:41:50;100915.63;;;9.35;65.05
12213;BME280;6169;44.158;22.788;2024-03-02T08:46:52;100908.03;;;9.07;66.26
12213;BME280;6169;44.158;22.788;2024-03-02T08:51:54;100916.44;;;8.87;66.83
12213;BME280;6169;44.158;22.788;2024-03-02T08:56:57;100912.78;;;9.42;65.44
12213;BME280;6169;44.158;22.788;2024-03-02T09:01:59;100909.75;;;9.50;63.88
12213;BME280;6169;44.158;22.788;2024-03-02T09:07:01;100916.59;;;9.41;65.35
12213;BME280;6169;44.158;22.788;2024-03-02T09:12:05;100916.00;;;9.51;65.51
12213;BME280;6169;44.158;22.788;2024-03-02T09:17:07;100917.75;;;9.45;65.82
12213;BME280;6169;44.158;22.788;2024-03-02T09:22:11;100917.78;;;9.57;65.68
12213;BME280;6169;44.158;22.788;2024-03-02T09:27:15;100913.72;;;9.36;64.93
12213;BME280;6169;44.158;22.788;2024-03-02T09:32:17;100916.66;;;9.64;65.79
12213;BME280;6169;44.158;22.788;2024-03-02T09:37:19;100914.63;;;9.30;65.72
12213;BME280;6169;44.158;22.788;2024-03-02T09:42:22;100926.56;;;9.89;64.63
12213;BME280;6169;44.158;22.788;2024-03-02T09:47:25;100924.16;;;9.51;64.89
12213;BME280;6169;44.158;22.788;2024-03-02T09:52:27;100915.22;;;9.62;65.62
12213;BME280;6169;44.158;22.788;2024-03-02T09:57:30;100917.69;;;9.94;64.03
12213;BME280;6169;44.158;22.788;2024-03-02T10:02:33;100910.50;;;10.11;63.88
12213;BME280;6169;44.158;22.788;2024-03-02T10:07:35;100910.00;;;9.90;64.37
12213;BME280;6169;44.158;22.788;2024-03-02T10:12:38;100918.53;;;10.65;62.29
12213;BME280;6169;44.158;22.788;2024-03-02T10:17:40;100905.75;;;9.95;64.50
12213;BME280;6169;44.158;22.788;2024-03-02T10:22:42;100902.78;;;10.55;61.91
12213;BME280;6169;44.158;22.788;2024-03-02T10:27:50;100896.19;;;10.16;63.87
12213;BME280;6169;44.158;22.788;2024-03-02T10:32:53;100835.50;;;10.03;62.34
12213;BME280;6169;44.158;22.788;2024-03-02T10:37:56;100898.31;;;10.37;62.13
12213;BME280;6169;44.158;22.788;2024-03-02T10:43:02;100896.53;;;10.43;62.25
12213;BME280;6169;44.158;22.788;2024-03-02T10:48:07;100903.66;;;10.20;63.15
12213;BME280;6169;44.158;22.788;2024-03-02T10:53:09;100884.69;;;10.49;61.57
12213;BME280;6169;44.158;22.788;2024-03-02T10:58:14;100885.69;;;10.95;62.32
12213;BME280;6169;44.158;22.788;2024-03-02T11:03:17;100883.44;;;11.32;60.92
12213;BME280;6169;44.158;22.788;2024-03-02T11:08:20;100881.38;;;11.11;61.02
12213;BME280;6169;44.158;22.788;2024-03-02T11:13:30;100879.78;;;10.86;62.50
12213;BME280;6169;44.158;22.788;2024-03-02T11:18:34;100874.59;;;10.73;62.97
12213;BME280;6169;44.158;22.788;2024-03-02T11:23:36;100874.16;;;10.64;61.94
12213;BME280;6169;44.158;22.788;2024-03-02T11:28:40;100863.13;;;10.83;60.99
12213;BME280;6169;44.158;22.788;2024-03-02T11:33:42;100860.78;;;10.51;63.55
12213;BME280;6169;44.158;22.788;2024-03-02T11:38:44;100850.47;;;11.05;60.39
12213;BME280;6169;44.158;22.788;2024-03-02T11:43:49;100858.31;;;11.01;59.86
12213;BME280;6169;44.158;22.788;2024-03-02T11:48:51;100861.81;;;11.14;60.18
12213;BME280;6169;44.158;22.788;2024-03-02T11:53:55;100853.25;;;10.93;59.34
12213;BME280;6169;44.158;22.788;2024-03-02T11:59:00;100859.09;;;10.73;59.68
12213;BME280;6169;44.158;22.788;2024-03-02T12:04:05;100851.63;;;10.69;61.44
12213;BME280;6169;44.158;22.788;2024-03-02T12:09:09;100851.53;;;10.52;62.27
12213;BME280;6169;44.158;22.788;2024-03-02T12:14:14;100848.97;;;10.33;62.71
12213;BME280;6169;44.158;22.788;2024-03-02T12:19:16;100851.09;;;10.31;63.09
12213;BME280;6169;44.158;22.788;2024-03-02T12:24:21;100851.81;;;10.03;64.11
12213;BME280;6169;44.158;22.788;2024-03-02T12:29:25;100848.03;;;10.40;63.64
12213;BME280;6169;44.158;22.788;2024-03-02T12:34:27;100853.31;;;10.58;61.92
12213;BME280;6169;44.158;22.788;2024-03-02T12:39:29;100854.28;;;10.52;62.33
12213;BME280;6169;44.158;22.788;2024-03-02T12:44:34;100847.06;;;10.46;62.64
12213;BME280;6169;44.158;22.788;2024-03-02T12:49:37;100850.22;;;10.66;62.35
12213;BME280;6169;44.158;22.788;2024-03-02T12:54:39;100846.34;;;10.50;62.38
12213;BME280;6169;44.158;22.788;2024-03-02T12:59:45;100851.22;;;10.48;62.27
12213;BME280;6169;44.158;22.788;2024-03-02T13:04:52;100847.41;;;10.49;62.10
12213;BME280;6169;44.158;22.788;2024-03-02T13:09:55;100842.22;;;10.48;62.99
12213;BME280;6169;44.158;22.788;2024-03-02T13:14:59;100842.94;;;10.31;62.87
12213;BME280;6169;44.158;22.788;2024-03-02T13:20:01;100840.69;;;10.28;63.43
12213;BME280;6169;44.158;22.788;2024-03-02T13:25:05;100844.34;;;10.46;62.96
12213;BME280;6169;44.158;22.788;2024-03-02T13:30:12;100848.22;;;10.50;63.39
12213;BME280;6169;44.158;22.788;2024-03-02T13:35:14;100855.25;;;10.34;62.21
12213;BME280;6169;44.158;22.788;2024-03-02T13:40:16;100851.28;;;10.65;60.82
12213;BME280;6169;44.158;22.788;2024-03-02T13:45:22;100857.44;;;10.61;62.51
12213;BME280;6169;44.158;22.788;2024-03-02T13:50:24;100839.03;;;10.39;63.34
12213;BME280;6169;44.158;22.788;2024-03-02T13:55:26;100850.88;;;10.45;62.96
12213;BME280;6169;44.158;22.788;2024-03-02T14:00:29;100862.47;;;10.28;62.52
12213;BME280;6169;44.158;22.788;2024-03-02T14:05:32;100867.41;;;10.55;62.91
12213;BME280;6169;44.158;22.788;2024-03-02T14:10:34;100854.25;;;10.64;62.63
12213;BME280;6169;44.158;22.788;2024-03-02T14:15:37;100860.56;;;10.41;63.10
12213;BME280;6169;44.158;22.788;2024-03-02T14:20:40;100867.41;;;10.55;61.90
12213;BME280;6169;44.158;22.788;2024-03-02T14:25:42;100866.25;;;10.39;63.35
12213;BME280;6169;44.158;22.788;2024-03-02T14:30:46;100860.34;;;10.30;63.15
12213;BME280;6169;44.158;22.788;2024-03-02T14:35:48;100858.28;;;10.49;63.39
12213;BME280;6169;44.158;22.788;2024-03-02T14:40:50;100865.28;;;10.57;62.78
12213;BME280;6169;44.158;22.788;2024-03-02T14:45:54;100860.94;;;9.97;64.26
12213;BME280;6169;44.158;22.788;2024-03-02T14:50:57;100865.66;;;10.25;64.47
12213;BME280;6169;44.158;22.788;2024-03-02T14:55:59;100863.66;;;10.09;64.69
12213;BME280;6169;44.158;22.788;2024-03-02T15:01:03;100862.22;;;9.95;64.57
12213;BME280;6169;44.158;22.788;2024-03-02T15:06:06;100866.25;;;9.80;66.64
12213;BME280;6169;44.158;22.788;2024-03-02T15:11:08;100874.16;;;9.82;65.64
12213;BME280;6169;44.158;22.788;2024-03-02T15:16:12;100876.19;;;10.10;64.41
12213;BME280;6169;44.158;22.788;2024-03-02T15:21:14;100877.47;;;10.07;64.88
12213;BME280;6169;44.158;22.788;2024-03-02T15:26:16;100871.22;;;10.07;64.64
12213;BME280;6169;44.158;22.788;2024-03-02T15:31:20;100879.50;;;9.88;65.61
12213;BME280;6169;44.158;22.788;2024-03-02T15:36:22;100880.41;;;9.82;66.69
12213;BME280;6169;44.158;22.788;2024-03-02T15:41:24;100888.00;;;9.80;66.00
12213;BME280;6169;44.158;22.788;2024-03-02T15:46:27;100877.97;;;9.51;66.72
12213;BME280;6169;44.158;22.788;2024-03-02T15:51:30;100878.97;;;9.68;66.73
12213;BME280;6169;44.158;22.788;2024-03-02T15:56:32;100841.81;;;9.62;66.29
12213;BME280;6169;44.158;22.788;2024-03-02T16:01:35;100876.84;;;9.70;65.81
12213;BME280;6169;44.158;22.788;2024-03-02T16:06:37;100887.06;;;10.10;64.16
12213;BME280;6169;44.158;22.788;2024-03-02T16:11:39;100888.34;;;9.96;65.15
12213;BME280;6169;44.158;22.788;2024-03-02T16:16:43;100885.03;;;9.94;64.87
12213;BME280;6169;44.158;22.788;2024-03-02T16:21:45;100894.75;;;10.13;63.95
12213;BME280;6169;44.158;22.788;2024-03-02T16:26:47;100892.28;;;10.00;64.70
12213;BME280;6169;44.158;22.788;2024-03-02T16:31:50;100888.84;;;9.93;65.63
12213;BME280;6169;44.158;22.788;2024-03-02T16:36:52;100889.66;;;9.93;65.63
12213;BME280;6169;44.158;22.788;2024-03-02T16:41:54;100891.22;;;10.01;65.13
12213;BME280;6169;44.158;22.788;2024-03-02T16:46:58;100890.13;;;9.78;66.13
12213;BME280;6169;44.158;22.788;2024-03-02T16:52:00;100904.22;;;9.99;64.68
12213;BME280;6169;44.158;22.788;2024-03-02T16:57:02;100909.28;;;9.83;66.30
12213;BME280;6169;44.158;22.788;2024-03-02T17:02:06;100913.50;;;9.79;66.16
12213;BME280;6169;44.158;22.788;2024-03-02T17:07:08;100913.31;;;9.93;65.91
12213;BME280;6169;44.158;22.788;2024-03-02T17:12:10;100919.72;;;9.98;65.71
12213;BME280;6169;44.158;22.788;2024-03-02T17:17:14;100913.31;;;9.93;65.41
12213;BME280;6169;44.158;22.788;2024-03-02T17:22:18;100914.13;;;9.93;65.75
12213;BME280;6169;44.158;22.788;2024-03-02T17:27:20;100917.19;;;9.85;66.03
12213;BME280;6169;44.158;22.788;2024-03-02T17:32:23;100922.63;;;9.85;65.44
12213;BME280;6169;44.158;22.788;2024-03-02T17:37:25;100918.84;;;9.74;65.56
12213;BME280;6169;44.158;22.788;2024-03-02T17:42:27;100921.19;;;9.71;66.21
12213;BME280;6169;44.158;22.788;2024-03-02T17:47:31;100915.81;;;9.64;66.41
12213;BME280;6169;44.158;22.788;2024-03-02T17:52:33;100914.66;;;9.60;66.11
12213;BME280;6169;44.158;22.788;2024-03-02T17:57:35;100922.94;;;9.35;66.91
12213;BME280;6169;44.158;22.788;2024-03-02T18:02:39;100909.31;;;9.65;65.82
12213;BME280;6169;44.158;22.788;2024-03-02T18:07:41;100914.53;;;9.36;66.78
12213;BME280;6169;44.158;22.788;2024-03-02T18:12:43;100926.06;;;9.50;65.34
12213;BME280;6169;44.158;22.788;2024-03-02T18:17:48;100925.97;;;9.27;65.87
12213;BME280;6169;44.158;22.788;2024-03-02T18:22:50;100926.91;;;9.20;66.36
12213;BME280;6169;44.158;22.788;2024-03-02T18:27:52;100948.03;;;9.18;66.77
12213;BME280;6169;44.158;22.788;2024-03-02T18:32:55;100953.22;;;9.20;66.46
12213;BME280;6169;44.158;22.788;2024-03-02T18:37:57;100950.72;;;9.00;67.26
12213;BME280;6169;44.158;22.788;2024-03-02T18:42:59;100954.97;;;8.96;67.72
12213;BME280;6169;44.158;22.788;2024-03-02T18:48:04;100961.00;;;9.16;66.71
12213;BME280;6169;44.158;22.788;2024-03-02T18:53:07;100958.06;;;8.99;66.47
12213;BME280;6169;44.158;22.788;2024-03-02T18:58:09;100954.22;;;9.07;67.62
12213;BME280;6169;44.158;22.788;2024-03-02T19:03:13;100961.66;;;9.12;65.89
12213;BME280;6169;44.158;22.788;2024-03-02T19:08:15;100963.94;;;8.96;65.97
12213;BME280;6169;44.158;22.788;2024-03-02T19:13:19;100958.00;;;8.88;66.76
12213;BME280;6169;44.158;22.788;2024-03-02T19:18:22;100967.91;;;9.31;65.57
12213;BME280;6169;44.158;22.788;2024-03-02T19:23:24;100965.97;;;9.38;64.80
12213;BME280;6169;44.158;22.788;2024-03-02T19:28:26;100969.06;;;9.23;65.81
12213;BME280;6169;44.158;22.788;2024-03-02T19:33:30;100980.22;;;9.52;64.53
12213;BME280;6169;44.158;22.788;2024-03-02T19:38:32;100985.69;;;9.15;65.73
12213;BME280;6169;44.158;22.788;2024-03-02T19:43:35;100979.84;;;9.30;65.09
12213;BME280;6169;44.158;22.788;2024-03-02T19:48:39;100981.44;;;9.37;65.65
12213;BME280;6169;44.158;22.788;2024-03-02T19:53:41;100990.31;;;9.63;64.58
12213;BME280;6169;44.158;22.788;2024-03-02T19:58:43;100998.47;;;9.44;65.22
12213;BME280;6169;44.158;22.788;2024-03-02T20:03:46;100991.94;;;9.64;64.63
12213;BME280;6169;44.158;22.788;2024-03-02T20:08:50;100996.38;;;9.28;66.70
12213;BME280;6169;44.158;22.788;2024-03-02T20:13:52;100996.75;;;8.95;66.91
12213;BME280;6169;44.158;22.788;2024-03-02T20:18:55;100989.06;;;9.29;66.34
12213;BME280;6169;44.158;22.788;2024-03-02T20:23:57;100990.38;;;9.26;66.61
12213;BME280;6169;44.158;22.788;2024-03-02T20:29:00;100998.31;;;9.39;66.29
12213;BME280;6169;44.158;22.788;2024-03-02T20:34:03;100993.72;;;9.40;65.55
12213;BME280;6169;44.158;22.788;2024-03-02T20:39:05;100998.06;;;8.92;67.69
12213;BME280;6169;44.158;22.788;2024-03-02T20:44:08;100990.03;;;9.34;65.73
12213;BME280;6169;44.158;22.788;2024-03-02T20:49:16;100990.88;;;9.35;66.01
12213;BME280;6169;44.158;22.788;2024-03-02T20:54:18;100982.72;;;9.35;65.81
12213;BME280;6169;44.158;22.788;2024-03-02T20:59:20;100980.47;;;9.62;65.08
12213;BME280;6169;44.158;22.788;2024-03-02T21:04:24;100984.16;;;9.37;65.77
12213;BME280;6169;44.158;22.788;2024-03-02T21:09:26;100969.09;;;9.53;65.32
12213;BME280;6169;44.158;22.788;2024-03-02T21:14:28;100973.25;;;9.56;65.50
12213;BME280;6169;44.158;22.788;2024-03-02T21:19:32;100988.63;;;9.62;65.10
12213;BME280;6169;44.158;22.788;2024-03-02T21:24:35;100994.63;;;9.34;66.14
12213;BME280;6169;44.158;22.788;2024-03-02T21:29:37;100994.88;;;9.32;65.82
12213;BME280;6169;44.158;22.788;2024-03-02T21:34:42;100997.34;;;9.34;67.08
12213;BME280;6169;44.158;22.788;2024-03-02T21:39:44;100994.78;;;9.39;66.80
12213;BME280;6169;44.158;22.788;2024-03-02T21:44:46;101000.16;;;9.27;66.25
12213;BME280;6169;44.158;22.788;2024-03-02T21:49:49;100997.97;;;9.17;67.55
12213;BME280;6169;44.158;22.788;2024-03-02T21:54:51;100988.78;;;9.18;67.54
12213;BME280;6169;44.158;22.788;2024-03-02T21:59:53;100996.41;;;9.10;67.06
12213;BME280;6169;44.158;22.788;2024-03-02T22:04:57;100999.50;;;9.13;67.49
12213;BME280;6169;44.158;22.788;2024-03-02T22:09:59;101013.22;;;8.82;68.32
12213;BME280;6169;44.158;22.788;2024-03-02T22:15:02;101013.59;;;8.85;68.96
12213;BME280;6169;44.158;22.788;2024-03-02T22:20:06;101006.94;;;8.81;68.29
12213;BME280;6169;44.158;22.788;2024-03-02T22:25:09;100999.94;;;9.10;67.71
12213;BME280;6169;44.158;22.788;2024-03-02T22:30:11;101000.91;;;9.16;66.89
12213;BME280;6169;44.158;22.788;2024-03-02T22:35:15;101005.31;;;8.98;67.84
12213;BME280;6169;44.158;22.788;2024-03-02T22:40:17;101000.25;;;9.02;68.38
12213;BME280;6169;44.158;22.788;2024-03-02T22:45:19;100999.88;;;8.98;67.99
12213;BME280;6169;44.158;22.788;2024-03-02T22:50:22;100995.41;;;9.04;67.79
12213;BME280;6169;44.158;22.788;2024-03-02T22:55:24;101001.88;;;9.03;67.61
12213;BME280;6169;44.158;22.788;2024-03-02T23:00:26;101009.22;;;8.84;67.84
12213;BME280;6169;44.158;22.788;2024-03-02T23:05:37;100984.41;;;8.55;67.77
12213;BME280;6169;44.158;22.788;2024-03-02T23:10:39;100987.56;;;8.96;66.87
12213;BME280;6169;44.158;22.788;2024-03-02T23:15:41;100979.94;;;9.05;66.13
12213;BME280;6169;44.158;22.788;2024-03-02T23:20:45;100982.50;;;8.81;67.18
12213;BME280;6169;44.158;22.788;2024-03-02T23:25:47;100985.34;;;8.86;66.86
12213;BME280;6169;44.158;22.788;2024-03-02T23:30:49;100980.84;;;8.80;67.14
12213;BME280;6169;44.158;22.788;2024-03-02T23:35:53;100978.28;;;8.85;66.92
12213;BME280;6169;44.158;22.788;2024-03-02T23:40:55;100985.81;;;8.83;66.82
12213;BME280;6169;44.158;22.788;2024-03-02T23:46:10;100994.13;;;8.88;67.13
12213;BME280;6169;44.158;22.788;2024-03-02T23:51:14;100981.91;;;8.79;65.71
12213;BME280;6169;44.158;22.788;2024-03-02T23:56:16;100996.97;;;8.75;66.40
